Time;durP1;ratioP1;P1;durP2;ratioP2;P2;SDS_P1;SDS_P2;PMS_P1;PMS_P2;Temp;Humidity;BMP_temperature;BMP_pressure;BME280_temperature;BME280_humidity;BME280_pressure;Samples;Min_cycle;Max_cycle;Signal;HPM_P1;HPM_P2
2022/09/04 00:02:33;;;;;;;68.90;9.83;;;19.60;99.90;;;;;;5037137;28;20404;-82
2022/09/04 00:05:14;;;;;;;68.27;10.00;;;19.50;99.90;;;;;;5054013;28;20455;-82
2022/09/04 00:08:10;;;;;;;68.60;9.07;;;19.60;99.90;;;;;;5038609;28;20493;-82
2022/09/04 00:10:54;;;;;;;67.70;10.47;;;19.60;99.90;;;;;;5038364;28;20416;-83
2022/09/04 00:13:40;;;;;;;67.93;9.23;;;19.60;99.90;;;;;;5039037;28;20392;-82
2022/09/04 00:16:23;;;;;;;68.03;9.40;;;19.60;99.90;;;;;;5038452;28;20436;-83
2022/09/04 00:19:01;;;;;;;68.03;9.37;;;19.60;99.90;;;;;;5037512;28;20465;-81
2022/09/04 00:21:26;;;;;;;69.47;10.53;;;19.50;99.90;;;;;;5037918;28;20407;-82
2022/09/04 00:24:03;;;;;;;71.10;11.87;;;19.50;99.90;;;;;;5037393;28;20931;-82
2022/09/04 00:26:44;;;;;;;67.70;10.33;;;19.40;99.90;;;;;;5037391;28;20168;-82
2022/09/04 00:29:28;;;;;;;70.20;10.80;;;19.30;99.90;;;;;;5038764;28;20381;-81
2022/09/04 00:32:12;;;;;;;67.87;10.40;;;19.40;99.90;;;;;;5037075;28;20415;-82
2022/09/04 00:34:57;;;;;;;69.40;10.77;;;19.40;99.90;;;;;;5038203;28;20896;-81
2022/09/04 00:37:30;;;;;;;73.77;11.00;;;19.40;99.90;;;;;;5038770;28;20451;-82
2022/09/04 00:40:08;;;;;;;72.63;11.60;;;19.40;99.90;;;;;;5042272;28;20392;-81
2022/09/04 00:42:52;;;;;;;70.53;12.37;;;19.20;99.90;;;;;;5040690;28;20463;-82
2022/09/04 00:45:45;;;;;;;69.97;12.83;;;19.20;99.90;;;;;;5041272;28;20440;-83
2022/09/04 00:48:37;;;;;;;68.47;11.53;;;19.30;99.90;;;;;;5041156;28;20428;-81
2022/09/04 00:51:15;;;;;;;71.70;13.93;;;19.10;99.90;;;;;;5040085;28;20408;-82
2022/09/04 00:53:44;;;;;;;70.93;15.80;;;19.10;99.90;;;;;;5040702;28;20386;-82
2022/09/04 00:56:38;;;;;;;71.90;18.63;;;19.00;99.90;;;;;;5040901;28;20444;-83
2022/09/04 00:59:22;;;;;;;72.90;16.40;;;19.10;99.90;;;;;;5040391;28;20373;-81
2022/09/04 01:01:50;;;;;;;71.63;16.70;;;19.00;99.90;;;;;;5039126;28;20454;-83
2022/09/04 01:04:50;;;;;;;75.43;26.00;;;19.00;99.90;;;;;;5040378;28;20400;-81
2022/09/04 01:07:46;;;;;;;73.40;21.37;;;19.00;99.90;;;;;;5040918;28;20494;-81
2022/09/04 01:10:35;;;;;;;72.27;14.43;;;19.10;99.90;;;;;;5040293;28;20385;-82
2022/09/04 01:13:17;;;;;;;71.87;15.03;;;19.10;99.90;;;;;;5024916;28;20412;-81
2022/09/04 01:15:59;;;;;;;73.73;14.43;;;19.20;99.90;;;;;;5040698;28;20495;-81
2022/09/04 01:19:01;;;;;;;70.87;14.50;;;19.20;99.90;;;;;;5040770;28;20451;-81
2022/09/04 01:21:56;;;;;;;70.67;13.80;;;19.20;99.90;;;;;;5040649;28;20945;-81
2022/09/04 01:24:46;;;;;;;71.00;13.63;;;19.30;99.90;;;;;;5039179;28;20414;-82
2022/09/04 01:27:33;;;;;;;69.83;10.77;;;19.30;99.90;;;;;;5040255;28;20429;-82
2022/09/04 01:30:15;;;;;;;72.00;12.67;;;19.20;99.90;;;;;;5040380;28;20382;-82
2022/09/04 01:33:06;;;;;;;70.53;11.50;;;19.20;99.90;;;;;;5040279;28;20389;-81
2022/09/04 01:35:55;;;;;;;71.73;12.87;;;19.20;99.90;;;;;;5038556;28;20468;-81
2022/09/04 01:38:43;;;;;;;69.50;11.70;;;19.20;99.90;;;;;;5040332;28;20428;-82
2022/09/04 01:41:23;;;;;;;70.80;12.00;;;19.10;99.90;;;;;;5040274;28;20388;-82
2022/09/04 01:43:49;;;;;;;70.57;12.50;;;19.10;99.90;;;;;;5039956;28;20431;-81
2022/09/04 01:46:33;;;;;;;69.83;12.10;;;19.10;99.90;;;;;;5039586;28;20400;-83
2022/09/04 01:49:08;;;;;;;72.70;12.63;;;19.10;99.90;;;;;;5038565;28;20458;-81
2022/09/04 01:51:49;;;;;;;69.77;11.10;;;19.10;99.90;;;;;;5040147;28;20403;-81
2022/09/04 01:54:36;;;;;;;72.63;11.60;;;19.10;99.90;;;;;;5039179;28;20410;-81
2022/09/04 01:57:32;;;;;;;71.70;12.43;;;19.00;99.90;;;;;;5040004;28;20459;-81
2022/09/04 02:00:09;;;;;;;69.87;12.07;;;19.00;99.90;;;;;;5040370;28;20390;-81
2022/09/04 02:02:55;;;;;;;72.17;13.13;;;18.90;99.90;;;;;;5038672;28;20411;-81
2022/09/04 02:05:24;;;;;;;70.10;11.33;;;18.90;99.90;;;;;;5039620;28;20385;-82
2022/09/04 02:08:27;;;;;;;71.33;12.57;;;18.80;99.90;;;;;;5039909;28;20510;-83
2022/09/04 02:11:12;;;;;;;70.27;13.80;;;18.80;99.90;;;;;;5038495;28;20390;-82
2022/09/04 02:14:03;;;;;;;72.50;13.20;;;18.80;99.90;;;;;;5038530;28;20399;-82
2022/09/04 02:16:42;;;;;;;71.57;14.63;;;18.70;99.90;;;;;;5037298;28;20537;-81
2022/09/04 02:19:28;;;;;;;71.50;13.33;;;18.80;99.90;;;;;;5039242;28;20377;-82
2022/09/04 02:22:16;;;;;;;71.80;13.50;;;18.80;99.90;;;;;;5038759;28;20384;-81
2022/09/04 02:24:41;;;;;;;70.50;13.87;;;18.70;99.90;;;;;;5038909;28;20391;-82
2022/09/04 02:27:19;;;;;;;73.50;15.43;;;18.80;99.90;;;;;;5038616;28;20795;-81
2022/09/04 02:30:10;;;;;;;71.50;13.23;;;18.80;99.90;;;;;;5038788;28;20237;-82
2022/09/04 02:33:14;;;;;;;75.27;15.60;;;18.70;99.90;;;;;;5038640;28;20387;-82
2022/09/04 02:35:54;;;;;;;71.57;14.60;;;18.70;99.90;;;;;;5037875;28;20455;-82
2022/09/04 02:38:50;;;;;;;76.30;17.10;;;18.60;99.90;;;;;;5038699;28;20493;-82
2022/09/04 02:41:37;;;;;;;72.03;17.30;;;18.60;99.90;;;;;;5039351;28;20860;-82
2022/09/04 02:44:18;;;;;;;75.00;19.93;;;18.50;99.90;;;;;;5037890;28;20429;-82
2022/09/04 02:47:11;;;;;;;78.30;30.47;;;18.30;99.90;;;;;;5038836;28;20423;-82
2022/09/04 02:49:48;;;;;;;75.70;28.40;;;18.30;99.90;;;;;;5038648;28;20404;-82
2022/09/04 02:52:45;;;;;;;79.60;29.13;;;18.30;99.90;;;;;;5037276;28;20401;-83
2022/09/04 02:55:18;;;;;;;78.57;28.37;;;18.30;99.90;;;;;;5038557;28;20441;-81
2022/09/04 02:57:59;;;;;;;77.00;28.43;;;18.30;99.90;;;;;;5038390;28;20458;-82
2022/09/04 03:00:54;;;;;;;78.43;24.77;;;18.40;99.90;;;;;;5037275;28;20377;-82
2022/09/04 03:03:24;;;;;;;75.50;21.60;;;18.40;99.90;;;;;;5037891;28;20412;-82
2022/09/04 03:06:00;;;;;;;79.40;30.83;;;18.20;99.90;;;;;;5036425;28;20409;-81
2022/09/04 03:08:35;;;;;;;79.57;33.20;;;18.20;99.90;;;;;;5037697;28;20423;-83
2022/09/04 03:11:01;;;;;;;82.10;39.20;;;18.20;99.90;;;;;;5036885;28;20423;-81
2022/09/04 03:14:02;;;;;;;80.33;34.40;;;18.00;99.90;;;;;;5036567;28;20417;-82
2022/09/04 03:16:39;;;;;;;82.60;38.80;;;18.10;99.90;;;;;;5038595;28;20185;-82
2022/09/04 03:19:20;;;;;;;80.07;33.60;;;18.20;99.90;;;;;;5036171;28;20396;-82
2022/09/04 03:21:46;;;;;;;77.17;24.57;;;18.20;99.90;;;;;;5036874;28;20396;-83
2022/09/04 03:24:29;;;;;;;77.20;28.73;;;18.30;99.90;;;;;;5037573;28;20602;-82
2022/09/04 03:27:05;;;;;;;74.70;17.87;;;18.30;99.90;;;;;;5037640;28;20181;-81
2022/09/04 03:30:03;;;;;;;78.43;20.90;;;18.30;99.90;;;;;;5037411;28;20380;-82
2022/09/04 03:32:44;;;;;;;77.27;27.27;;;18.10;99.90;;;;;;5033492;28;20424;-81
2022/09/04 03:35:18;;;;;;;79.93;28.33;;;18.10;99.90;;;;;;5037451;28;20440;-83
2022/09/04 03:37:47;;;;;;;78.97;31.00;;;18.10;99.90;;;;;;5037426;28;20515;-81
2022/09/04 03:40:17;;;;;;;81.70;34.13;;;18.10;99.90;;;;;;5037161;28;20396;-82
2022/09/04 03:42:55;;;;;;;75.73;25.10;;;18.10;99.90;;;;;;5037680;28;20381;-82
2022/09/04 03:45:51;;;;;;;76.10;24.23;;;18.20;99.90;;;;;;5038016;28;20475;-82
2022/09/04 03:48:25;;;;;;;78.73;25.60;;;18.20;99.90;;;;;;5037093;28;20420;-82
2022/09/04 03:51:27;;;;;;;77.70;22.57;;;18.20;99.90;;;;;;5036958;28;20463;-82
2022/09/04 03:54:08;;;;;;;74.47;17.97;;;18.20;99.90;;;;;;5037617;28;20463;-82
2022/09/04 03:56:48;;;;;;;74.00;19.27;;;18.20;99.90;;;;;;5036318;28;20544;-83
2022/09/04 03:59:41;;;;;;;74.27;19.27;;;18.10;99.90;;;;;;5037733;28;20442;-82
2022/09/04 04:02:16;;;;;;;72.60;17.07;;;18.10;99.90;;;;;;5038228;28;20381;-82
2022/09/04 04:05:06;;;;;;;73.97;17.43;;;18.10;99.90;;;;;;5037415;28;20376;-81
2022/09/04 04:07:58;;;;;;;74.03;19.07;;;18.00;99.90;;;;;;5037435;28;20420;-82
2022/09/04 04:10:44;;;;;;;77.40;23.23;;;18.00;99.90;;;;;;5037854;28;20375;-81
2022/09/04 04:13:25;;;;;;;75.77;21.50;;;18.00;99.90;;;;;;5041865;28;20441;-82
2022/09/04 04:16:39;;;;;;;74.80;20.17;;;18.00;99.90;;;;;;5042694;28;20431;-82
2022/09/04 04:19:32;;;;;;;79.20;28.17;;;17.90;99.90;;;;;;5030065;28;20439;-82
2022/09/04 04:22:22;;;;;;;77.93;23.27;;;18.00;99.90;;;;;;5042118;28;20752;-83
2022/09/04 04:25:32;;;;;;;80.17;32.70;;;17.80;99.90;;;;;;5041159;28;20395;-82
2022/09/04 04:28:18;;;;;;;78.40;31.20;;;17.80;99.90;;;;;;5033556;28;20463;-82
2022/09/04 04:30:53;;;;;;;81.00;27.60;;;17.90;99.90;;;;;;5042010;28;20379;-81
2022/09/04 04:33:31;;;;;;;72.97;21.37;;;17.90;99.90;;;;;;5042510;28;20463;-81
2022/09/04 04:36:35;;;;;;;74.87;21.67;;;17.90;99.90;;;;;;5041762;28;20553;-83
2022/09/04 04:39:26;;;;;;;74.60;21.80;;;17.80;99.90;;;;;;5039396;28;20419;-82
2022/09/04 04:42:23;;;;;;;77.17;27.53;;;17.70;99.90;;;;;;5042550;28;20867;-83
2022/09/04 04:48:22;;;;;;;80.77;39.27;;;17.50;99.90;;;;;;5042785;28;20470;-82
2022/09/04 04:51:23;;;;;;;81.77;43.57;;;17.50;99.90;;;;;;5042388;28;20376;-82
2022/09/04 04:54:17;;;;;;;81.90;36.73;;;17.50;99.90;;;;;;5042139;28;20423;-82
2022/09/04 04:57:09;;;;;;;81.27;37.77;;;17.50;99.90;;;;;;5041732;28;20474;-81
2022/09/04 04:59:57;;;;;;;76.47;30.10;;;17.50;99.90;;;;;;5040628;28;20500;-83
2022/09/04 05:02:38;;;;;;;77.60;32.70;;;17.50;99.90;;;;;;5041942;28;20380;-83
2022/09/04 05:05:32;;;;;;;83.80;38.23;;;17.50;99.90;;;;;;5040299;28;20404;-82
2022/09/04 05:08:06;;;;;;;81.63;42.37;;;17.50;99.90;;;;;;5048237;28;20436;-82
2022/09/04 05:10:32;;;;;;;79.20;37.20;;;17.50;99.90;;;;;;5041750;28;20413;-81
2022/09/04 05:13:39;;;;;;;82.20;48.17;;;17.50;99.90;;;;;;5040616;28;20899;-82
2022/09/04 05:16:30;;;;;;;84.00;44.03;;;17.50;99.90;;;;;;5036043;28;20647;-82
2022/09/04 05:19:28;;;;;;;84.13;48.20;;;17.50;99.90;;;;;;5040483;28;20404;-81
2022/09/04 05:22:16;;;;;;;80.07;37.20;;;17.50;99.90;;;;;;5042160;28;20760;-82
2022/09/04 05:24:49;;;;;;;80.37;36.57;;;17.50;99.90;;;;;;5041435;28;20443;-83
2022/09/04 05:27:33;;;;;;;83.70;48.47;;;17.50;99.90;;;;;;5041641;28;20435;-82
2022/09/04 05:30:16;;;;;;;85.73;57.63;;;17.50;99.90;;;;;;5042865;28;20751;-83
2022/09/04 05:33:09;;;;;;;80.70;43.77;;;17.50;99.90;;;;;;5042069;28;20380;-82
2022/09/04 05:35:53;;;;;;;80.30;36.00;;;17.60;99.90;;;;;;5041833;28;20530;-83
2022/09/04 05:38:31;;;;;;;79.73;40.00;;;17.60;99.90;;;;;;5042070;28;20416;-83
2022/09/04 05:41:25;;;;;;;80.27;42.30;;;17.70;99.90;;;;;;5043159;28;20376;-82
2022/09/04 05:44:00;;;;;;;78.83;36.27;;;17.70;99.90;;;;;;5041874;28;20923;-83
2022/09/04 05:46:46;;;;;;;80.10;40.27;;;17.70;99.90;;;;;;5042355;28;20903;-82
2022/09/04 05:49:30;;;;;;;80.57;43.07;;;17.60;99.90;;;;;;5042806;28;20381;-82
2022/09/04 05:52:23;;;;;;;85.13;53.27;;;17.60;99.90;;;;;;5042434;28;20408;-83
2022/09/04 05:54:52;;;;;;;87.60;59.73;;;17.50;99.90;;;;;;5040718;28;20396;-82
2022/09/04 05:57:35;;;;;;;86.80;57.77;;;17.50;99.90;;;;;;5041604;28;20432;-83
2022/09/04 06:00:17;;;;;;;87.50;62.00;;;17.60;99.90;;;;;;5042398;28;20380;-82
2022/09/04 06:03:14;;;;;;;89.10;66.07;;;17.70;99.90;;;;;;5042052;28;20447;-83
2022/09/04 06:05:59;;;;;;;86.90;57.17;;;17.70;99.90;;;;;;5042632;28;20415;-82
2022/09/04 06:08:46;;;;;;;90.77;72.57;;;17.70;99.90;;;;;;5042428;28;20783;-81
2022/09/04 06:11:43;;;;;;;88.37;64.20;;;17.80;99.90;;;;;;5043022;28;20424;-81
2022/09/04 06:14:30;;;;;;;91.43;65.83;;;17.80;99.90;;;;;;5042326;28;20388;-83
2022/09/04 06:17:05;;;;;;;89.80;61.43;;;17.80;99.90;;;;;;5042459;28;20455;-83
2022/09/04 06:19:50;;;;;;;91.30;66.47;;;17.80;99.90;;;;;;5042645;28;20384;-83
2022/09/04 06:22:35;;;;;;;89.07;59.23;;;17.80;99.90;;;;;;5042184;28;20399;-83
2022/09/04 06:25:41;;;;;;;88.10;57.07;;;17.90;99.90;;;;;;5041614;28;20429;-82
2022/09/04 06:28:06;;;;;;;90.83;54.90;;;17.80;99.90;;;;;;5001031;28;20433;-83
2022/09/04 06:31:03;;;;;;;88.93;58.53;;;17.80;99.90;;;;;;5036285;28;20411;-82
2022/09/04 06:33:39;;;;;;;84.63;47.23;;;17.80;99.90;;;;;;5040849;28;20170;-83
2022/09/04 06:36:11;;;;;;;89.33;57.83;;;17.90;99.90;;;;;;5040866;28;20526;-83
2022/09/04 06:39:14;;;;;;;90.43;67.23;;;18.00;99.90;;;;;;5041357;28;20432;-82
2022/09/04 06:42:14;;;;;;;90.80;57.70;;;18.00;99.90;;;;;;5042731;28;20391;-82
2022/09/04 06:44:46;;;;;;;89.73;57.97;;;18.10;99.90;;;;;;5035335;28;20852;-83
2022/09/04 06:47:28;;;;;;;86.03;41.03;;;18.00;99.90;;;;;;5041488;28;20420;-83
2022/09/04 06:50:15;;;;;;;81.97;38.73;;;18.00;99.90;;;;;;5041308;28;20392;-82
2022/09/04 06:53:28;;;;;;;85.40;48.53;;;18.00;99.90;;;;;;5041208;28;20402;-82
2022/09/04 06:56:11;;;;;;;92.10;70.03;;;18.10;99.90;;;;;;5041682;28;20435;-82
2022/09/04 06:58:42;;;;;;;98.93;79.80;;;18.20;99.90;;;;;;5041971;28;20420;-83
2022/09/04 07:01:45;;;;;;;95.83;79.03;;;18.30;99.90;;;;;;5039787;28;20405;-82
2022/09/04 07:04:42;;;;;;;90.50;63.67;;;18.30;99.90;;;;;;5040752;28;20464;-82
2022/09/04 07:07:17;;;;;;;85.90;52.27;;;18.30;99.90;;;;;;5039968;28;20427;-83
2022/09/04 07:09:54;;;;;;;92.13;62.60;;;18.30;99.90;;;;;;5040790;28;20899;-83
2022/09/04 07:12:23;;;;;;;96.83;85.13;;;18.30;99.90;;;;;;5039554;28;20436;-83
2022/09/04 07:14:51;;;;;;;94.70;79.63;;;18.40;99.90;;;;;;5039718;28;20443;-82
2022/09/04 07:17:38;;;;;;;93.80;76.17;;;18.50;99.90;;;;;;5040249;28;20915;-82
2022/09/04 07:20:26;;;;;;;92.53;73.93;;;18.50;99.90;;;;;;5041200;28;20419;-82
2022/09/04 07:23:22;;;;;;;93.67;66.63;;;18.50;99.90;;;;;;5042336;28;20876;-82
2022/09/04 07:26:10;;;;;;;84.70;36.27;;;18.60;99.90;;;;;;5039923;28;20380;-82
2022/09/04 07:28:53;;;;;;;84.03;42.30;;;18.60;99.90;;;;;;5039614;28;20510;-82
2022/09/04 07:31:33;;;;;;;79.83;29.13;;;18.60;99.90;;;;;;5039824;28;20419;-82
2022/09/04 07:34:05;;;;;;;87.37;54.23;;;18.60;99.90;;;;;;5038783;28;20441;-82
2022/09/04 07:36:37;;;;;;;96.70;72.17;;;18.70;99.90;;;;;;5038462;28;20621;-82
2022/09/04 07:39:45;;;;;;;80.73;35.73;;;18.80;99.90;;;;;;5037851;28;20412;-83
2022/09/04 07:42:33;;;;;;;82.73;40.37;;;18.80;99.90;;;;;;5024231;28;20412;-81
2022/09/04 07:45:21;;;;;;;81.50;30.27;;;18.80;99.90;;;;;;5038701;28;20442;-82
2022/09/04 07:48:01;;;;;;;80.37;35.23;;;18.90;99.90;;;;;;5037881;28;20424;-82
2022/09/04 07:51:03;;;;;;;74.20;18.70;;;19.00;99.90;;;;;;5041071;28;20377;-83
2022/09/04 07:53:47;;;;;;;81.17;35.00;;;19.10;99.90;;;;;;5035852;28;20408;-83
2022/09/04 07:56:41;;;;;;;85.83;54.03;;;19.20;99.90;;;;;;5041106;28;20785;-84
2022/09/04 07:59:08;;;;;;;117.07;105.30;;;19.30;99.90;;;;;;5041844;28;20444;-83
2022/09/04 08:01:53;;;;;;;112.43;101.17;;;19.30;99.90;;;;;;5042535;28;20469;-84
2022/09/04 08:04:53;;;;;;;103.17;92.13;;;19.40;99.90;;;;;;5041518;28;20169;-83
2022/09/04 08:07:48;;;;;;;105.23;94.03;;;19.40;99.90;;;;;;5041597;28;20428;-83
2022/09/04 08:10:32;;;;;;;95.50;82.43;;;19.40;99.90;;;;;;5041710;28;20442;-83
2022/09/04 08:13:23;;;;;;;102.07;91.03;;;19.40;99.90;;;;;;5041825;28;20478;-83
2022/09/04 08:16:05;;;;;;;88.47;61.07;;;19.50;99.90;;;;;;5039917;28;20444;-82
2022/09/04 08:18:40;;;;;;;96.33;83.67;;;19.60;99.90;;;;;;5041394;28;20442;-82
2022/09/04 08:21:27;;;;;;;105.43;94.30;;;19.60;99.90;;;;;;5041450;28;20407;-83
2022/09/04 08:24:14;;;;;;;117.27;105.70;;;19.70;99.90;;;;;;5040114;28;20405;-83
2022/09/04 08:26:59;;;;;;;98.07;83.93;;;19.70;99.90;;;;;;5039322;28;20450;-82
2022/09/04 08:29:43;;;;;;;115.20;104.03;;;19.80;99.90;;;;;;5040170;28;20404;-83
2022/09/04 08:32:35;;;;;;;117.13;106.00;;;19.90;99.90;;;;;;5038303;28;20429;-83
2022/09/04 08:35:35;;;;;;;103.50;92.70;;;20.00;99.90;;;;;;5039425;28;20993;-82
2022/09/04 08:38:30;;;;;;;90.00;67.97;;;20.00;99.90;;;;;;5038489;28;20488;-83
2022/09/04 08:41:07;;;;;;;86.57;59.40;;;20.20;99.90;;;;;;5039993;28;20371;-82
2022/09/04 08:44:00;;;;;;;87.43;57.57;;;20.30;99.90;;;;;;5040039;28;20409;-82
2022/09/04 08:46:47;;;;;;;81.27;41.97;;;20.30;99.90;;;;;;5040229;28;20380;-82
2022/09/04 08:49:48;;;;;;;77.23;25.00;;;20.40;99.90;;;;;;5039477;28;20435;-83
2022/09/04 08:52:56;;;;;;;73.67;22.57;;;20.40;99.90;;;;;;5022294;28;20920;-82
2022/09/04 08:55:46;;;;;;;76.53;23.73;;;20.60;99.90;;;;;;5037703;28;20483;-83
2022/09/04 08:58:36;;;;;;;73.97;20.00;;;20.60;99.90;;;;;;5038670;28;20426;-83
2022/09/04 09:01:20;;;;;;;74.07;20.80;;;20.70;99.90;;;;;;5043957;28;20389;-83
2022/09/04 09:03:56;;;;;;;72.97;18.90;;;20.80;99.90;;;;;;5043495;28;20381;-82
2022/09/04 09:06:44;;;;;;;74.67;17.27;;;20.90;99.90;;;;;;5043392;28;20867;-83
2022/09/04 09:09:37;;;;;;;72.90;18.20;;;21.00;99.90;;;;;;5041468;28;20404;-82
2022/09/04 09:12:40;;;;;;;72.53;16.87;;;21.20;99.90;;;;;;5042657;28;20380;-83
2022/09/04 09:15:44;;;;;;;76.77;29.33;;;21.30;99.90;;;;;;5042381;28;20411;-82
2022/09/04 09:18:36;;;;;;;72.67;22.13;;;21.30;99.90;;;;;;5041074;28;20435;-83
2022/09/04 09:21:07;;;;;;;73.97;23.27;;;21.50;99.90;;;;;;5042585;28;20389;-83
2022/09/04 09:24:06;;;;;;;76.70;21.40;;;21.50;99.90;;;;;;5041138;28;20400;-83
2022/09/04 09:26:48;;;;;;;69.90;14.77;;;21.60;99.90;;;;;;5041300;28;20385;-83
2022/09/04 09:29:58;;;;;;;68.27;7.97;;;21.80;99.90;;;;;;5041897;28;20395;-83
2022/09/04 09:32:42;;;;;;;66.90;6.23;;;21.80;99.90;;;;;;5020654;28;20412;-83
2022/09/04 09:35:28;;;;;;;67.00;6.60;;;21.90;99.90;;;;;;5042279;28;20883;-83
2022/09/04 09:37:55;;;;;;;66.17;6.37;;;22.00;99.90;;;;;;5042496;28;20428;-83
2022/09/04 09:40:33;;;;;;;66.30;4.90;;;22.00;99.90;;;;;;5040977;28;20416;-83
2022/09/04 09:43:51;;;;;;;67.73;4.83;;;22.10;99.90;;;;;;5042946;28;20396;-82
2022/09/04 09:46:48;;;;;;;65.33;4.87;;;22.10;99.90;;;;;;5003354;28;20489;-84
2022/09/04 09:49:20;;;;;;;68.70;4.70;;;22.20;99.90;;;;;;5043200;28;20404;-84
2022/09/04 09:52:16;;;;;;;66.00;4.10;;;22.50;99.90;;;;;;5043400;28;20915;-84
2022/09/04 09:55:06;;;;;;;65.80;4.87;;;22.60;99.90;;;;;;5044660;28;20381;-84
2022/09/04 09:57:51;;;;;;;66.57;5.50;;;22.80;99.90;;;;;;5044651;28;20424;-84
2022/09/04 10:00:46;;;;;;;66.70;5.43;;;23.10;99.90;;;;;;5044213;28;20384;-84
2022/09/04 10:03:49;;;;;;;65.00;4.30;;;23.20;99.90;;;;;;5044348;28;20412;-83
2022/09/04 10:06:33;;;;;;;73.70;5.40;;;23.40;99.90;;;;;;5043004;28;20424;-84
2022/09/04 10:09:08;;;;;;;67.47;5.13;;;23.50;99.10;;;;;;5042984;28;20403;-82
2022/09/04 10:11:42;;;;;;;68.60;4.47;;;23.50;97.30;;;;;;5043179;28;20387;-84
2022/09/04 10:14:11;;;;;;;66.23;4.40;;;23.70;96.70;;;;;;5043735;28;20389;-84
2022/09/04 10:16:41;;;;;;;65.20;4.50;;;24.00;96.20;;;;;;5043944;28;20547;-83
2022/09/04 10:19:10;;;;;;;66.60;5.90;;;24.40;88.60;;;;;;5041738;28;20397;-83
2022/09/04 10:21:54;;;;;;;69.83;5.90;;;24.40;89.00;;;;;;5042244;28;20776;-82
2022/09/04 10:25:08;;;;;;;66.67;5.63;;;24.40;81.10;;;;;;5043936;28;20396;-85
2022/09/04 10:27:55;;;;;;;66.87;5.27;;;24.50;89.60;;;;;;5043424;28;20480;-83
2022/09/04 10:30:22;;;;;;;67.47;5.73;;;24.60;75.80;;;;;;5042326;28;20436;-84
2022/09/04 10:33:05;;;;;;;68.20;5.80;;;25.00;77.90;;;;;;5044375;28;20401;-84
2022/09/04 10:36:03;;;;;;;67.23;7.10;;;25.30;66.60;;;;;;5106007;22;20448;-85
2022/09/04 10:42:21;;;;;;;67.87;7.07;;;25.60;45.60;;;;;;4979271;28;20381;-84
2022/09/04 10:45:13;;;;;;;67.57;6.13;;;25.60;52.20;;;;;;4962959;28;20401;-84
2022/09/04 10:47:53;;;;;;;71.57;7.37;;;25.60;35.60;;;;;;5029650;28;20425;-84
2022/09/04 10:50:31;;;;;;;67.83;6.60;;;25.50;42.80;;;;;;5039594;28;20390;-82
2022/09/04 10:53:06;;;;;;;67.27;7.50;;;25.40;44.80;;;;;;5020960;28;20406;-84
2022/09/04 10:56:10;;;;;;;66.90;7.20;;;25.90;40.30;;;;;;5020807;28;20462;-83
2022/09/04 10:59:02;;;;;;;67.00;6.80;;;26.10;36.10;;;;;;5009094;28;20502;-82
2022/09/04 11:01:55;;;;;;;67.60;5.63;;;26.30;26.40;;;;;;5038235;28;20392;-82
2022/09/04 11:04:40;;;;;;;66.17;4.27;;;26.70;18.90;;;;;;5021081;28;20411;-85
2022/09/04 11:07:25;;;;;;;67.70;4.20;;;26.50;18.80;;;;;;5020350;28;20434;-84
2022/09/04 11:10:00;;;;;;;66.47;5.23;;;26.80;16.90;;;;;;5020286;28;20414;-83
2022/09/04 11:12:38;;;;;;;67.03;3.97;;;26.80;18.30;;;;;;5193710;22;20573;-84
2022/09/04 11:15:46;;;;;;;68.33;4.30;;;26.80;8.40;;;;;;5274728;22;20843;-85
2022/09/04 11:18:59;;;;;;;69.27;4.40;;;26.90;21.90;;;;;;5051238;28;20454;-84
2022/09/04 11:21:48;;;;;;;67.63;3.10;;;27.10;9.90;;;;;;5050714;28;20866;-84
2022/09/04 11:24:38;;;;;;;67.07;3.40;;;27.40;2.90;;;;;;5033593;28;20412;-84
2022/09/04 11:27:28;;;;;;;66.73;3.80;;;27.60;1.00;;;;;;5033555;28;20455;-86
2022/09/04 11:30:16;;;;;;;68.97;3.67;;;28.00;1.00;;;;;;5007405;28;20412;-85
2022/09/04 11:33:16;;;;;;;67.37;4.20;;;28.30;1.00;;;;;;5051205;28;20381;-85
2022/09/04 11:36:19;;;;;;;66.43;3.43;;;28.10;1.00;;;;;;5046296;28;20432;-86
2022/09/04 11:39:24;;;;;;;69.00;2.90;;;28.60;1.00;;;;;;5053415;28;20426;-86
2022/09/04 11:42:07;;;;;;;66.20;2.60;;;29.00;1.00;;;;;;5040159;28;20485;-85
2022/09/04 11:44:57;;;;;;;66.27;3.37;;;29.10;1.00;;;;;;5020366;28;20404;-84
2022/09/04 11:48:00;;;;;;;66.50;2.50;;;28.60;1.00;;;;;;5024048;28;20447;-84
2022/09/04 11:50:45;;;;;;;67.30;3.27;;;28.20;1.00;;;;;;5018943;28;20403;-85
2022/09/04 11:53:29;;;;;;;67.00;3.20;;;27.80;1.00;;;;;;5035609;28;20442;-84
2022/09/04 11:56:17;;;;;;;67.00;3.10;;;27.50;1.00;;;;;;5018163;28;20467;-84
2022/09/04 11:59:05;;;;;;;67.87;3.63;;;27.40;1.00;;;;;;5037245;28;20477;-85
2022/09/04 12:01:31;;;;;;;71.25;3.50;;;27.40;1.00;;;;;;5020096;28;20474;-85
2022/09/04 12:04:24;;;;;;;72.22;4.72;;;27.30;1.00;;;;;;5019709;28;20923;-84
2022/09/04 12:07:12;;;;;;;65.40;2.83;;;27.10;1.00;;;;;;5027188;28;20260;-84
2022/09/04 12:10:05;;;;;;;65.40;2.50;;;27.10;1.00;;;;;;5020619;28;20462;-85
2022/09/04 12:12:51;;;;;;;65.23;2.43;;;27.10;1.00;;;;;;5021055;28;20397;-85
2022/09/04 12:15:43;;;;;;;66.17;2.93;;;27.30;1.00;;;;;;5037698;28;20776;-85
2022/09/04 12:18:53;;;;;;;66.50;2.37;;;27.50;1.00;;;;;;5037103;28;20417;-84
2022/09/04 12:21:52;;;;;;;65.63;2.70;;;27.70;1.00;;;;;;5036697;28;20393;-84
2022/09/04 12:24:38;;;;;;;66.30;2.77;;;27.40;1.00;;;;;;5032277;28;20408;-85
2022/09/04 12:27:22;;;;;;;67.30;3.00;;;27.20;1.00;;;;;;5018425;28;20432;-86
2022/09/04 12:30:26;;;;;;;65.47;2.40;;;27.10;1.00;;;;;;5037055;28;20388;-85
2022/09/04 12:33:26;;;;;;;65.77;2.60;;;27.30;1.00;;;;;;5011729;28;20407;-85
2022/09/04 12:36:18;;;;;;;67.27;3.93;;;27.30;1.00;;;;;;5026119;28;20500;-85
2022/09/04 12:38:47;;;;;;;67.73;3.20;;;27.40;1.00;;;;;;5020683;28;20892;-84
2022/09/04 12:41:24;;;;;;;65.50;2.67;;;27.80;1.00;;;;;;5023628;28;20412;-85
2022/09/04 12:44:05;;;;;;;68.20;5.13;;;28.20;1.00;;;;;;5023071;28;20403;-86
2022/09/04 12:46:49;;;;;;;67.27;4.80;;;28.50;1.00;;;;;;5022710;28;20418;-85
2022/09/04 12:49:35;;;;;;;66.00;3.90;;;28.30;1.00;;;;;;5041741;28;20384;-85
2022/09/04 12:52:04;;;;;;;66.37;3.50;;;28.30;1.00;;;;;;5023205;28;20836;-86
2022/09/04 12:55:02;;;;;;;67.60;4.90;;;28.50;1.00;;;;;;5041111;28;20404;-85
2022/09/04 12:57:46;;;;;;;67.83;5.00;;;28.50;1.00;;;;;;5023249;28;20444;-85
2022/09/04 13:00:15;;;;;;;68.23;4.00;;;28.60;1.00;;;;;;5022260;28;20404;-84
2022/09/04 13:02:57;;;;;;;66.50;4.20;;;28.50;1.00;;;;;;5021567;28;20827;-85
2022/09/04 13:05:38;;;;;;;66.70;2.70;;;28.50;1.00;;;;;;5022906;28;20475;-86
2022/09/04 13:08:16;;;;;;;67.67;4.43;;;28.30;1.00;;;;;;5025938;28;20427;-86
2022/09/04 13:11:01;;;;;;;66.67;2.77;;;28.40;1.00;;;;;;5045361;28;20467;-86
2022/09/04 13:13:54;;;;;;;66.17;2.50;;;28.50;1.00;;;;;;5045830;28;20392;-86
2022/09/04 13:16:37;;;;;;;70.20;3.13;;;28.40;1.00;;;;;;5027453;28;20463;-85
2022/09/04 13:19:27;;;;;;;67.20;2.83;;;28.50;1.00;;;;;;5043294;28;20534;-85
2022/09/04 13:22:00;;;;;;;66.37;2.70;;;28.60;1.00;;;;;;5025860;28;20405;-84
2022/09/04 13:24:57;;;;;;;67.00;3.10;;;28.80;1.00;;;;;;5025756;28;20404;-86
2022/09/04 13:27:39;;;;;;;66.07;2.57;;;28.90;1.00;;;;;;5023190;28;20981;-85
2022/09/04 13:30:17;;;;;;;65.57;2.80;;;28.80;1.00;;;;;;5025256;28;20443;-84
2022/09/04 13:33:14;;;;;;;71.40;2.90;;;28.70;1.00;;;;;;5024511;28;20411;-84
2022/09/04 13:36:02;;;;;;;66.97;3.37;;;28.80;1.00;;;;;;5041241;28;20459;-84
2022/09/04 13:38:30;;;;;;;67.07;2.50;;;28.70;1.00;;;;;;5041619;28;20412;-84
2022/09/04 13:41:23;;;;;;;67.43;2.80;;;28.50;1.00;;;;;;5027043;28;20409;-85
2022/09/04 13:44:11;;;;;;;65.37;2.27;;;28.40;1.00;;;;;;5046758;28;20434;-85
2022/09/04 13:46:48;;;;;;;66.70;2.90;;;28.40;1.00;;;;;;5046216;28;20420;-84
2022/09/04 13:49:18;;;;;;;66.10;2.83;;;28.40;1.00;;;;;;5046607;28;20392;-84
2022/09/04 13:51:51;;;;;;;66.47;2.37;;;28.40;1.00;;;;;;5045947;28;20393;-85
2022/09/04 13:54:40;;;;;;;66.40;2.77;;;28.10;1.00;;;;;;5045368;28;20389;-84
2022/09/04 13:57:12;;;;;;;66.60;2.47;;;28.20;1.00;;;;;;5044168;28;20472;-85
2022/09/04 13:59:40;;;;;;;66.03;2.33;;;28.50;1.00;;;;;;5028497;28;20424;-84
2022/09/04 14:02:11;;;;;;;65.90;2.73;;;28.40;1.00;;;;;;5031127;28;20408;-84
2022/09/04 14:04:45;;;;;;;66.57;2.80;;;28.50;1.00;;;;;;5029676;28;20400;-85
2022/09/04 14:07:23;;;;;;;66.77;3.03;;;28.80;1.00;;;;;;5046193;28;20951;-85
2022/09/04 14:09:54;;;;;;;66.10;3.23;;;29.00;1.00;;;;;;5046658;28;20396;-83
2022/09/04 14:12:48;;;;;;;65.83;2.80;;;29.00;1.00;;;;;;5026478;28;20760;-84
2022/09/04 14:15:23;;;;;;;66.27;2.67;;;28.80;1.00;;;;;;5032794;28;20427;-84